Time;durP1;ratioP1;P1;durP2;ratioP2;P2;SDS_P1;SDS_P2;PMS_P1;PMS_P2;Temp;Humidity;BMP_temperature;BMP_pressure;BME280_temperature;BME280_humidity;BME280_pressure;Samples;Min_cycle;Max_cycle;Signal;HPM_P1;HPM_P2
2024/03/19 00:00:19;;;;;;;1.33;0.82;;;6.10;70.60;;;;;;5040449;28;20116;-65
2024/03/19 00:02:45;;;;;;;1.65;0.75;;;6.00;70.90;;;;;;5028636;28;20430;-65
2024/03/19 00:05:10;;;;;;;1.33;0.50;;;6.00;70.60;;;;;;5029734;28;20049;-65
2024/03/19 00:07:36;;;;;;;2.75;1.35;;;6.00;69.70;;;;;;5027910;28;20029;-65
2024/03/19 00:10:01;;;;;;;1.23;0.73;;;6.00;70.20;;;;;;5032062;28;20060;-65
2024/03/19 00:12:30;;;;;;;1.10;0.52;;;6.00;69.50;;;;;;5037306;28;20022;-65
2024/03/19 00:14:55;;;;;;;0.85;0.60;;;6.00;70.20;;;;;;5025893;28;20025;-65
2024/03/19 00:17:21;;;;;;;1.50;0.73;;;6.00;70.70;;;;;;5038501;28;20428;-65
2024/03/19 00:19:47;;;;;;;1.95;1.00;;;6.00;71.70;;;;;;5029009;28;20033;-65
2024/03/19 00:22:12;;;;;;;2.08;0.80;;;5.90;71.90;;;;;;5029835;28;20095;-65
2024/03/19 00:24:38;;;;;;;1.08;0.68;;;5.90;72.60;;;;;;5043710;28;20099;-65
2024/03/19 00:27:03;;;;;;;1.25;0.88;;;5.90;71.40;;;;;;5024782;28;20128;-65
2024/03/19 00:29:29;;;;;;;1.08;0.68;;;5.90;71.90;;;;;;5025160;28;20144;-66
2024/03/19 00:31:54;;;;;;;1.05;0.65;;;5.90;71.60;;;;;;5038822;28;20037;-65
2024/03/19 00:34:20;;;;;;;1.23;0.70;;;5.90;71.30;;;;;;5031393;28;20134;-65
2024/03/19 00:36:46;;;;;;;0.85;0.68;;;5.90;70.60;;;;;;5031129;28;20036;-64
2024/03/19 00:39:11;;;;;;;2.20;0.80;;;5.90;70.50;;;;;;5031373;28;20128;-67
2024/03/19 00:41:38;;;;;;;2.53;0.85;;;5.90;70.50;;;;;;5025026;28;20135;-64
2024/03/19 00:44:04;;;;;;;1.60;0.70;;;5.90;70.60;;;;;;4991907;28;988780;-65
2024/03/19 00:46:31;;;;;;;1.42;0.80;;;5.80;70.90;;;;;;5030389;28;20702;-65
2024/03/19 00:48:56;;;;;;;2.28;0.95;;;5.90;71.50;;;;;;5032989;28;20484;-65
2024/03/19 00:51:22;;;;;;;2.33;0.80;;;5.90;70.80;;;;;;5027263;28;20045;-65
2024/03/19 00:53:47;;;;;;;2.25;1.02;;;5.80;71.60;;;;;;5033703;28;20501;-64
2024/03/19 00:56:13;;;;;;;1.40;0.82;;;5.80;70.80;;;;;;5025668;28;20044;-64
2024/03/19 00:58:38;;;;;;;1.48;0.85;;;5.80;71.00;;;;;;5029702;28;20120;-64
2024/03/19 01:01:04;;;;;;;1.10;0.70;;;5.80;71.50;;;;;;5032727;28;20124;-65
2024/03/19 01:03:29;;;;;;;0.85;0.80;;;5.80;71.90;;;;;;5038073;28;20083;-65
2024/03/19 01:05:55;;;;;;;2.60;0.82;;;5.80;71.20;;;;;;5036252;28;20175;-65
2024/03/19 01:08:20;;;;;;;1.63;0.93;;;5.80;70.90;;;;;;5038883;28;20063;-64
2024/03/19 01:10:46;;;;;;;2.03;0.82;;;5.80;70.70;;;;;;5031179;28;20073;-64
2024/03/19 01:13:11;;;;;;;1.40;0.80;;;5.70;71.40;;;;;;5044369;28;20096;-64
2024/03/19 01:15:37;;;;;;;1.30;0.75;;;5.70;70.60;;;;;;5033642;28;20037;-64
2024/03/19 01:18:04;;;;;;;2.28;0.98;;;5.70;72.30;;;;;;5034208;28;20116;-64
2024/03/19 01:20:31;;;;;;;0.77;0.60;;;5.70;71.20;;;;;;5038339;28;20109;-64
2024/03/19 01:22:58;;;;;;;1.40;0.85;;;5.70;71.00;;;;;;5037937;28;20456;-64
2024/03/19 01:25:24;;;;;;;2.05;0.77;;;5.70;70.90;;;;;;5033643;28;20033;-65
2024/03/19 01:27:51;;;;;;;1.25;0.80;;;5.70;70.90;;;;;;5033546;28;20067;-65
2024/03/19 01:30:17;;;;;;;1.00;0.85;;;5.70;70.70;;;;;;5031299;28;20018;-64
2024/03/19 01:32:42;;;;;;;1.50;0.70;;;5.60;71.10;;;;;;5039456;28;20102;-66
2024/03/19 01:35:08;;;;;;;1.23;0.70;;;5.60;70.70;;;;;;5035346;28;20354;-65
2024/03/19 01:37:34;;;;;;;1.20;0.80;;;5.60;71.40;;;;;;5030734;28;20037;-65
2024/03/19 01:39:59;;;;;;;1.83;1.00;;;5.60;71.50;;;;;;5037830;28;20485;-65
2024/03/19 01:42:25;;;;;;;1.02;0.60;;;5.60;71.60;;;;;;5031466;28;20454;-65
2024/03/19 01:45:12;;;;;;;1.02;0.80;;;5.60;71.20;;;;;;5036558;28;20090;-66
2024/03/19 01:47:39;;;;;;;0.90;0.60;;;5.60;71.30;;;;;;5031834;28;20406;-65
2024/03/19 01:50:10;;;;;;;2.83;1.00;;;5.60;71.90;;;;;;5036063;28;20457;-65
2024/03/19 01:52:39;;;;;;;1.35;0.57;;;5.60;72.00;;;;;;5050354;28;20033;-65
2024/03/19 01:55:06;;;;;;;1.10;0.85;;;5.60;71.80;;;;;;5025439;28;20321;-66
2024/03/19 01:57:32;;;;;;;3.47;0.85;;;5.60;71.80;;;;;;5034286;28;20220;-65
2024/03/19 01:59:57;;;;;;;1.63;0.60;;;5.60;72.20;;;;;;5038344;28;20513;-65
2024/03/19 02:02:34;;;;;;;4.65;1.00;;;5.60;72.50;;;;;;5031822;28;20097;-64
2024/03/19 02:05:00;;;;;;;2.70;1.05;;;5.50;72.20;;;;;;5030593;28;20041;-65
2024/03/19 02:07:26;;;;;;;1.55;0.80;;;5.50;73.20;;;;;;5032355;28;20342;-65
2024/03/19 02:09:52;;;;;;;1.73;0.93;;;5.50;73.00;;;;;;5031179;28;20039;-65
2024/03/19 02:12:19;;;;;;;1.25;0.63;;;5.50;72.40;;;;;;5034135;28;20029;-65
2024/03/19 02:14:45;;;;;;;0.98;0.55;;;5.50;73.00;;;;;;5039008;28;20219;-65
2024/03/19 02:17:11;;;;;;;2.13;0.90;;;5.40;72.80;;;;;;5031344;28;20049;-64
2024/03/19 02:19:38;;;;;;;1.17;0.82;;;5.40;72.60;;;;;;5040312;28;20422;-66
2024/03/19 02:22:04;;;;;;;1.80;0.82;;;5.40;73.40;;;;;;5037785;28;20031;-65
2024/03/19 02:24:29;;;;;;;2.20;1.00;;;5.30;73.40;;;;;;5034473;28;20135;-65
2024/03/19 02:26:55;;;;;;;2.30;0.95;;;5.30;73.40;;;;;;5035101;28;20108;-65
2024/03/19 02:29:21;;;;;;;1.13;0.70;;;5.20;73.60;;;;;;5040754;28;20036;-66
2024/03/19 02:31:46;;;;;;;0.90;0.70;;;5.20;74.00;;;;;;5034485;28;20039;-64
2024/03/19 02:34:12;;;;;;;1.20;0.80;;;5.10;74.30;;;;;;5038448;28;20041;-65
2024/03/19 02:36:37;;;;;;;1.27;0.60;;;5.10;74.40;;;;;;5033823;28;20452;-66
2024/03/19 02:39:03;;;;;;;2.20;0.75;;;5.10;74.70;;;;;;5033230;28;20041;-65
2024/03/19 02:41:28;;;;;;;0.77;0.65;;;5.00;74.50;;;;;;5036426;28;20100;-65
2024/03/19 02:43:54;;;;;;;1.08;0.68;;;5.00;74.90;;;;;;5037210;28;20057;-65
2024/03/19 02:46:19;;;;;;;0.73;0.73;;;5.00;73.80;;;;;;5037211;28;20052;-65
2024/03/19 02:48:45;;;;;;;1.17;0.63;;;5.00;74.70;;;;;;5033086;28;20126;-65
2024/03/19 02:51:10;;;;;;;0.85;0.80;;;5.00;74.70;;;;;;5029968;28;20091;-65
2024/03/19 02:53:36;;;;;;;2.13;0.90;;;4.90;74.70;;;;;;5034623;28;20531;-65
2024/03/19 02:56:01;;;;;;;1.75;0.80;;;4.90;74.80;;;;;;5041159;28;20032;-65
2024/03/19 02:58:27;;;;;;;0.70;0.63;;;4.80;75.00;;;;;;5038437;28;20036;-65
2024/03/19 03:00:52;;;;;;;1.92;0.90;;;4.70;75.50;;;;;;5035210;28;20148;-64
2024/03/19 03:03:19;;;;;;;1.00;0.82;;;4.60;75.70;;;;;;5036622;28;20051;-65
2024/03/19 03:05:45;;;;;;;1.13;0.70;;;4.60;76.40;;;;;;5038524;28;20457;-65
2024/03/19 03:08:10;;;;;;;1.75;0.90;;;4.50;76.20;;;;;;5038980;28;20029;-64
2024/03/19 03:10:36;;;;;;;1.38;0.85;;;4.30;76.60;;;;;;5040728;28;20110;-64
2024/03/19 03:13:01;;;;;;;2.15;1.10;;;4.30;76.80;;;;;;5039303;28;20535;-66
2024/03/19 03:15:28;;;;;;;1.77;0.85;;;4.30;77.10;;;;;;5035068;28;20029;-65
2024/03/19 03:17:54;;;;;;;1.95;0.88;;;4.10;77.40;;;;;;5032426;28;20057;-65
2024/03/19 03:20:20;;;;;;;1.15;0.70;;;4.10;77.60;;;;;;5035840;28;20144;-65
2024/03/19 03:22:46;;;;;;;2.03;0.90;;;4.10;77.80;;;;;;5028878;28;20087;-65
2024/03/19 03:25:11;;;;;;;1.40;0.70;;;4.10;78.00;;;;;;5029637;28;20082;-66
2024/03/19 03:27:40;;;;;;;1.35;0.90;;;4.00;78.30;;;;;;5028262;28;20087;-66
2024/03/19 03:30:10;;;;;;;1.33;0.85;;;3.90;78.30;;;;;;5028466;28;20047;-66
2024/03/19 03:32:41;;;;;;;1.13;1.02;;;3.90;78.30;;;;;;5033983;28;20342;-66
2024/03/19 03:35:10;;;;;;;1.40;0.85;;;3.90;78.60;;;;;;5033947;28;20137;-65
2024/03/19 03:37:36;;;;;;;1.23;1.02;;;3.80;78.80;;;;;;5029929;28;20052;-65
2024/03/19 03:40:12;;;;;;;1.63;0.90;;;3.80;78.80;;;;;;5027643;28;20099;-65
2024/03/19 03:42:38;;;;;;;1.25;0.90;;;3.80;78.90;;;;;;5029772;28;20053;-65
2024/03/19 03:45:04;;;;;;;0.85;0.73;;;3.80;79.20;;;;;;5041097;28;20091;-66
2024/03/19 03:47:30;;;;;;;1.42;1.00;;;3.80;79.00;;;;;;5041414;28;20037;-65
2024/03/19 03:49:55;;;;;;;2.22;0.88;;;3.80;79.30;;;;;;5034739;28;20113;-65
2024/03/19 03:52:21;;;;;;;1.67;1.02;;;3.70;79.20;;;;;;5034614;28;20083;-66
2024/03/19 03:54:47;;;;;;;1.77;0.98;;;3.80;79.30;;;;;;5033056;28;20457;-64
2024/03/19 03:57:12;;;;;;;1.58;0.98;;;3.70;79.30;;;;;;5032210;28;20143;-65
2024/03/19 03:59:37;;;;;;;1.42;0.85;;;3.80;79.30;;;;;;5040752;28;20163;-65
2024/03/19 04:02:04;;;;;;;1.33;0.80;;;3.70;79.40;;;;;;5031660;28;20119;-64
2024/03/19 04:04:29;;;;;;;1.52;0.82;;;3.70;79.50;;;;;;5031391;28;20100;-65
2024/03/19 04:06:55;;;;;;;1.40;0.73;;;3.60;79.60;;;;;;5031664;28;20384;-65
2024/03/19 04:09:20;;;;;;;2.28;1.02;;;3.60;79.80;;;;;;5029551;28;20041;-66
2024/03/19 04:11:46;;;;;;;1.77;1.00;;;3.60;79.70;;;;;;5032371;28;20168;-64
2024/03/19 04:14:11;;;;;;;1.50;0.75;;;3.50;79.90;;;;;;5025611;28;20068;-65
2024/03/19 04:16:36;;;;;;;1.27;0.95;;;3.50;80.00;;;;;;5034134;28;20120;-65
2024/03/19 04:19:02;;;;;;;0.93;0.82;;;3.50;80.10;;;;;;5032685;28;20548;-65
2024/03/19 04:21:27;;;;;;;1.27;0.85;;;3.40;80.60;;;;;;5034091;28;20069;-65
2024/03/19 04:23:53;;;;;;;2.75;1.15;;;3.30;80.70;;;;;;5038911;28;20052;-66
2024/03/19 04:26:18;;;;;;;1.23;0.90;;;3.30;80.70;;;;;;5023578;28;20035;-65
2024/03/19 04:28:44;;;;;;;1.05;0.73;;;3.30;80.90;;;;;;5037991;28;20044;-65
2024/03/19 04:31:10;;;;;;;1.45;0.88;;;3.20;81.00;;;;;;5035064;28;20037;-64
2024/03/19 04:33:36;;;;;;;2.00;0.95;;;3.20;81.10;;;;;;5028111;28;20041;-65
2024/03/19 04:36:02;;;;;;;2.83;0.93;;;3.20;81.00;;;;;;5036323;28;20479;-65
2024/03/19 04:38:28;;;;;;;2.35;1.10;;;3.10;81.10;;;;;;5029620;28;20037;-64
2024/03/19 04:40:53;;;;;;;1.23;0.95;;;3.10;81.30;;;;;;5027122;28;20125;-66
2024/03/19 04:43:20;;;;;;;1.48;1.17;;;3.10;81.40;;;;;;5036842;28;20053;-64
2024/03/19 04:45:45;;;;;;;0.98;0.88;;;3.00;81.50;;;;;;5036078;28;20025;-65
2024/03/19 04:48:11;;;;;;;1.20;1.02;;;3.00;81.60;;;;;;5040128;28;20146;-65
2024/03/19 04:50:36;;;;;;;2.85;1.13;;;3.00;81.60;;;;;;5038506;28;20064;-65
2024/03/19 04:53:02;;;;;;;0.73;0.70;;;2.90;81.80;;;;;;5040379;28;20395;-65
2024/03/19 04:55:27;;;;;;;1.10;0.93;;;2.90;81.80;;;;;;5025739;28;20099;-65
2024/03/19 04:57:53;;;;;;;2.17;0.98;;;2.90;82.30;;;;;;5035391;28;20123;-65
2024/03/19 05:00:18;;;;;;;2.78;1.30;;;2.80;82.30;;;;;;5034623;28;20042;-65
2024/03/19 05:02:47;;;;;;;4.78;1.13;;;2.80;82.60;;;;;;5034319;28;20044;-65
2024/03/19 05:05:12;;;;;;;2.50;1.40;;;2.70;82.80;;;;;;5034047;28;20060;-65
2024/03/19 05:07:39;;;;;;;2.45;1.20;;;2.70;82.90;;;;;;5031477;28;20030;-64
2024/03/19 05:10:05;;;;;;;2.22;1.30;;;2.60;83.00;;;;;;5029502;28;20026;-65
2024/03/19 05:12:30;;;;;;;2.90;1.45;;;2.60;83.30;;;;;;5031568;28;20663;-65
2024/03/19 05:14:56;;;;;;;2.90;1.30;;;2.60;83.50;;;;;;5033634;28;20133;-65
2024/03/19 05:17:21;;;;;;;2.33;1.50;;;2.60;83.50;;;;;;5030943;28;20038;-65
2024/03/19 05:19:47;;;;;;;1.77;0.90;;;2.60;83.60;;;;;;5029919;28;20044;-65
2024/03/19 05:22:12;;;;;;;3.47;1.45;;;2.60;83.80;;;;;;5039494;28;20037;-65
2024/03/19 05:24:38;;;;;;;1.80;1.30;;;2.50;83.80;;;;;;5031316;28;20117;-65
2024/03/19 05:27:03;;;;;;;1.92;1.30;;;2.50;83.90;;;;;;5032279;28;20034;-65
2024/03/19 05:29:31;;;;;;;2.78;1.20;;;2.50;84.00;;;;;;5029913;28;20029;-63
2024/03/19 05:31:57;;;;;;;4.28;1.40;;;2.50;84.00;;;;;;5040263;28;20290;-63
2024/03/19 05:34:22;;;;;;;3.95;1.73;;;2.50;84.00;;;;;;5036416;28;20664;-62
2024/03/19 05:36:48;;;;;;;2.03;1.35;;;2.50;84.00;;;;;;5034186;28;20101;-63
2024/03/19 05:39:14;;;;;;;1.17;1.05;;;2.50;84.10;;;;;;5036202;28;20117;-63
2024/03/19 05:41:40;;;;;;;2.35;1.38;;;2.40;83.90;;;;;;5044463;28;20059;-63
2024/03/19 05:44:07;;;;;;;1.90;1.23;;;2.50;84.10;;;;;;5030905;28;20115;-62
2024/03/19 05:46:33;;;;;;;2.75;1.70;;;2.50;84.10;;;;;;5032434;28;20032;-62
2024/03/19 05:48:58;;;;;;;2.15;1.30;;;2.50;84.20;;;;;;5038068;28;20033;-63
2024/03/19 05:51:24;;;;;;;3.22;1.40;;;2.40;84.30;;;;;;5042912;28;20041;-63
2024/03/19 05:53:49;;;;;;;1.35;1.00;;;2.50;84.20;;;;;;5034701;28;20064;-63
2024/03/19 05:56:15;;;;;;;1.92;1.25;;;2.50;84.10;;;;;;5028483;28;20040;-63
2024/03/19 05:58:40;;;;;;;4.63;1.65;;;2.50;84.30;;;;;;5037854;28;20085;-63
2024/03/19 06:01:06;;;;;;;3.00;1.40;;;2.50;84.40;;;;;;5038106;28;20357;-62
2024/03/19 06:03:32;;;;;;;3.08;1.80;;;2.60;84.20;;;;;;5036080;28;20105;-63
2024/03/19 06:06:03;;;;;;;2.20;1.30;;;2.60;84.20;;;;;;5036065;28;20065;-63
2024/03/19 06:08:29;;;;;;;2.72;1.65;;;2.60;84.10;;;;;;5033037;28;20298;-63
2024/03/19 06:10:55;;;;;;;1.33;1.02;;;2.60;84.10;;;;;;5029723;28;20032;-64
2024/03/19 06:13:21;;;;;;;3.47;1.50;;;2.60;83.90;;;;;;5039607;28;20485;-63
2024/03/19 06:15:46;;;;;;;1.90;1.27;;;2.60;83.90;;;;;;5042206;28;20048;-63
2024/03/19 06:18:12;;;;;;;2.95;1.20;;;2.60;83.70;;;;;;5036873;28;20040;-63
2024/03/19 06:20:38;;;;;;;1.67;1.13;;;2.70;83.80;;;;;;5031025;28;20441;-63
2024/03/19 06:23:04;;;;;;;2.38;1.50;;;2.70;83.80;;;;;;5030322;28;20119;-62
2024/03/19 06:25:30;;;;;;;2.10;1.20;;;2.70;83.70;;;;;;5030166;28;20025;-62
2024/03/19 06:27:55;;;;;;;2.00;1.23;;;2.80;83.60;;;;;;5031874;28;20108;-62
2024/03/19 06:30:21;;;;;;;2.53;1.60;;;2.90;83.30;;;;;;5029686;28;20702;-64
2024/03/19 06:32:46;;;;;;;2.15;1.50;;;2.90;83.10;;;;;;5030280;28;20045;-63
2024/03/19 06:35:14;;;;;;;2.78;1.48;;;3.00;83.20;;;;;;5028527;28;20129;-63
2024/03/19 06:37:40;;;;;;;2.17;1.33;;;3.00;83.00;;;;;;5034278;28;20123;-63
2024/03/19 06:40:07;;;;;;;2.78;1.65;;;3.10;82.60;;;;;;5030315;28;20033;-63
2024/03/19 06:42:32;;;;;;;2.60;1.70;;;3.10;82.70;;;;;;5038049;28;20140;-64
2024/03/19 06:44:57;;;;;;;2.63;1.80;;;3.10;82.20;;;;;;5032512;28;20143;-64
2024/03/19 06:47:23;;;;;;;2.15;1.45;;;3.20;82.40;;;;;;5033539;28;20029;-63
2024/03/19 06:49:49;;;;;;;3.33;1.50;;;3.20;82.30;;;;;;5027120;28;20051;-63
2024/03/19 06:52:15;;;;;;;2.58;1.35;;;3.20;82.00;;;;;;5028594;28;20028;-62
2024/03/19 06:54:41;;;;;;;2.45;1.45;;;3.30;82.10;;;;;;5034096;28;20029;-63
2024/03/19 06:57:07;;;;;;;1.67;1.27;;;3.40;82.10;;;;;;5032949;28;20032;-63
2024/03/19 06:59:33;;;;;;;2.47;1.48;;;3.50;81.70;;;;;;5036829;28;20388;-63
2024/03/19 07:01:59;;;;;;;3.85;1.50;;;3.50;81.40;;;;;;5037124;28;20094;-63
2024/03/19 07:04:27;;;;;;;2.88;1.50;;;3.60;81.40;;;;;;5030783;28;20369;-62
2024/03/19 07:06:53;;;;;;;2.55;1.42;;;3.70;81.10;;;;;;5028562;28;20450;-68
2024/03/19 07:09:20;;;;;;;1.95;1.45;;;3.80;80.90;;;;;;5023989;28;20101;-64
2024/03/19 07:11:45;;;;;;;3.13;1.40;;;3.80;80.50;;;;;;5031420;28;20474;-63
2024/03/19 07:14:11;;;;;;;4.30;2.15;;;3.90;80.70;;;;;;5032723;28;20045;-63
2024/03/19 07:16:38;;;;;;;3.47;2.03;;;4.10;80.50;;;;;;5030716;28;20029;-64
2024/03/19 07:19:04;;;;;;;3.65;1.60;;;4.00;79.80;;;;;;5035769;28;20427;-63
2024/03/19 07:21:29;;;;;;;5.10;1.58;;;4.10;80.00;;;;;;5032304;28;20094;-62
2024/03/19 07:23:55;;;;;;;2.67;1.38;;;4.20;79.70;;;;;;5030596;28;20037;-64
2024/03/19 07:26:20;;;;;;;2.80;1.73;;;4.30;79.70;;;;;;5025487;28;20045;-62
2024/03/19 07:28:47;;;;;;;2.70;1.50;;;4.60;79.70;;;;;;5034958;28;20017;-64
2024/03/19 07:31:13;;;;;;;2.80;1.60;;;4.80;79.40;;;;;;5030828;28;20027;-63
2024/03/19 07:33:38;;;;;;;3.55;1.70;;;4.60;79.20;;;;;;5033132;28;20195;-63
2024/03/19 07:36:05;;;;;;;2.58;1.65;;;4.80;78.80;;;;;;5027822;28;20394;-62
2024/03/19 07:38:30;;;;;;;3.25;1.60;;;5.00;78.60;;;;;;5030095;28;20382;-63
2024/03/19 07:40:56;;;;;;;2.00;1.45;;;4.90;77.60;;;;;;5038655;28;20029;-64
2024/03/19 07:43:21;;;;;;;2.28;1.42;;;4.90;77.50;;;;;;5034674;28;20057;-63
2024/03/19 07:45:48;;;;;;;1.83;1.42;;;4.80;77.80;;;;;;5033581;28;20044;-63
2024/03/19 07:48:15;;;;;;;3.83;1.70;;;4.90;77.60;;;;;;5040317;28;20077;-63
2024/03/19 07:50:40;;;;;;;3.60;1.95;;;4.90;78.00;;;;;;5033857;28;21251;-63
2024/03/19 07:53:06;;;;;;;2.53;1.23;;;4.90;77.80;;;;;;5030038;28;20048;-62
2024/03/19 07:55:31;;;;;;;4.05;1.65;;;5.10;77.70;;;;;;5030864;28;20329;-63
2024/03/19 07:57:57;;;;;;;2.03;1.25;;;5.20;77.60;;;;;;5030292;28;20048;-63
2024/03/19 08:00:22;;;;;;;4.22;1.70;;;5.10;77.00;;;;;;5037214;28;20078;-62
2024/03/19 08:02:48;;;;;;;2.65;1.40;;;5.30;78.00;;;;;;5030235;28;20049;-63
2024/03/19 08:05:13;;;;;;;3.55;1.55;;;5.30;77.10;;;;;;5026014;28;20120;-62
2024/03/19 08:07:45;;;;;;;3.03;1.60;;;5.40;77.90;;;;;;5037740;28;20059;-63
2024/03/19 08:10:12;;;;;;;6.07;1.73;;;5.30;77.20;;;;;;5023092;28;20163;-63
2024/03/19 08:12:37;;;;;;;3.05;1.90;;;5.30;77.20;;;;;;5029282;28;20029;-62
2024/03/19 08:15:03;;;;;;;3.22;1.88;;;5.60;77.40;;;;;;5045657;28;20478;-63
2024/03/19 08:17:32;;;;;;;2.65;1.45;;;5.60;76.60;;;;;;5038504;28;20064;-64
2024/03/19 08:19:58;;;;;;;3.72;1.95;;;5.80;76.60;;;;;;5031386;28;20457;-64
2024/03/19 08:22:24;;;;;;;2.33;1.58;;;6.10;76.70;;;;;;5041459;28;20063;-63
2024/03/19 08:24:50;;;;;;;2.90;1.40;;;6.10;74.80;;;;;;5044816;28;20059;-63
2024/03/19 08:27:16;;;;;;;4.88;1.95;;;6.30;75.20;;;;;;5036950;28;20028;-63
2024/03/19 08:29:42;;;;;;;3.40;1.52;;;6.20;76.30;;;;;;5036735;28;20037;-64
2024/03/19 08:32:08;;;;;;;3.80;1.70;;;6.20;75.30;;;;;;5032510;28;20475;-63
2024/03/19 08:34:33;;;;;;;3.72;2.00;;;6.40;75.10;;;;;;5038919;28;20420;-63
2024/03/19 08:36:59;;;;;;;2.90;1.92;;;6.40;74.70;;;;;;5032653;28;20045;-63
2024/03/19 08:39:24;;;;;;;3.03;1.50;;;6.60;74.50;;;;;;5034439;28;20469;-63
2024/03/19 08:41:53;;;;;;;2.83;1.67;;;6.90;74.30;;;;;;5037535;28;20036;-63
2024/03/19 08:44:22;;;;;;;3.28;1.77;;;7.10;74.70;;;;;;5049528;28;20051;-63
2024/03/19 08:46:47;;;;;;;4.97;1.65;;;7.10;73.30;;;;;;5040302;28;20073;-64
2024/03/19 08:49:16;;;;;;;3.67;2.00;;;7.30;73.90;;;;;;5034374;28;20041;-63
2024/03/19 08:51:42;;;;;;;3.67;1.80;;;7.00;73.30;;;;;;5037340;28;20068;-63
2024/03/19 08:54:08;;;;;;;3.25;1.77;;;7.00;73.20;;;;;;5043673;28;20049;-64
2024/03/19 08:56:35;;;;;;;2.72;1.40;;;7.10;73.70;;;;;;5028022;28;20041;-63
2024/03/19 08:59:01;;;;;;;3.78;1.85;;;7.10;73.20;;;;;;5039467;28;20041;-62
2024/03/19 09:01:26;;;;;;;4.68;1.73;;;7.30;73.70;;;;;;5033966;28;20077;-65
2024/03/19 09:03:52;;;;;;;4.07;1.70;;;7.30;73.20;;;;;;5030789;28;20149;-69
2024/03/19 09:06:18;;;;;;;3.50;1.77;;;7.30;73.00;;;;;;5032957;28;20049;-64
2024/03/19 09:08:44;;;;;;;4.10;1.95;;;7.40;72.80;;;;;;5035963;28;20103;-64
2024/03/19 09:11:10;;;;;;;3.17;1.60;;;7.50;73.50;;;;;;5025112;28;20211;-64
2024/03/19 09:13:36;;;;;;;3.28;1.75;;;7.50;72.80;;;;;;5032685;28;20082;-63
2024/03/19 09:16:02;;;;;;;3.88;1.90;;;7.50;72.70;;;;;;5039047;28;20030;-64
2024/03/19 09:18:27;;;;;;;3.97;1.63;;;7.40;72.80;;;;;;5039133;28;20037;-75
2024/03/19 09:20:53;;;;;;;4.57;2.28;;;7.40;72.70;;;;;;5031237;28;20103;-64
2024/03/19 09:23:18;;;;;;;3.75;2.00;;;7.50;72.30;;;;;;5035926;28;20036;-64
2024/03/19 09:25:44;;;;;;;4.32;2.33;;;8.10;72.80;;;;;;5030891;28;20166;-63
2024/03/19 09:28:09;;;;;;;7.13;2.35;;;8.20;72.00;;;;;;5033074;28;20330;-65
2024/03/19 09:30:36;;;;;;;4.15;2.55;;;8.20;71.30;;;;;;5035397;28;20120;-63
2024/03/19 09:33:02;;;;;;;5.53;2.55;;;8.30;71.40;;;;;;5036700;28;20389;-63
2024/03/19 09:35:27;;;;;;;5.85;2.00;;;8.70;71.60;;;;;;5033519;28;20052;-64
2024/03/19 09:37:54;;;;;;;3.78;2.17;;;8.90;71.00;;;;;;5034571;28;20202;-63
2024/03/19 09:40:20;;;;;;;2.85;1.73;;;8.80;71.30;;;;;;5028032;28;20025;-64
2024/03/19 09:42:46;;;;;;;4.65;2.15;;;9.00;69.60;;;;;;5036251;28;20366;-64
2024/03/19 09:45:30;;;;;;;5.10;2.13;;;8.60;70.30;;;;;;5029977;28;20033;-64
2024/03/19 09:47:57;;;;;;;5.30;2.45;;;8.70;70.10;;;;;;5035409;28;20124;-63
2024/03/19 09:50:24;;;;;;;4.68;2.63;;;8.70;70.60;;;;;;5031929;28;20029;-64
2024/03/19 09:52:51;;;;;;;3.45;1.80;;;8.80;71.50;;;;;;5034918;28;20029;-64
2024/03/19 09:55:18;;;;;;;4.00;2.13;;;8.70;70.50;;;;;;5028108;28;20406;-63
2024/03/19 09:57:46;;;;;;;4.72;1.95;;;8.80;70.50;;;;;;5034014;28;20040;-63
2024/03/19 10:00:23;;;;;;;3.17;1.70;;;9.00;69.60;;;;;;5037670;28;20120;-64
2024/03/19 10:02:49;;;;;;;3.97;1.80;;;9.10;70.40;;;;;;5037246;28;20077;-63
2024/03/19 10:05:15;;;;;;;4.97;2.20;;;9.10;70.30;;;;;;5032649;28;20111;-64
2024/03/19 10:07:41;;;;;;;4.47;2.25;;;9.10;70.50;;;;;;5042764;28;20078;-64
2024/03/19 10:10:07;;;;;;;4.80;2.42;;;9.40;69.80;;;;;;5025919;28;20707;-61
2024/03/19 10:12:33;;;;;;;4.78;2.22;;;9.30;70.80;;;;;;5040763;28;20120;-65
2024/03/19 10:15:04;;;;;;;4.20;2.03;;;9.70;68.90;;;;;;5036602;28;20152;-64
2024/03/19 10:17:30;;;;;;;4.50;2.00;;;10.10;68.60;;;;;;5030700;28;20033;-64
2024/03/19 10:19:56;;;;;;;3.53;1.95;;;10.30;68.50;;;;;;5034245;28;20043;-63
2024/03/19 10:22:21;;;;;;;4.78;2.38;;;10.40;67.00;;;;;;5035700;28;20117;-63
2024/03/19 10:24:47;;;;;;;4.80;2.25;;;10.60;68.30;;;;;;5034484;28;20043;-64
2024/03/19 10:27:16;;;;;;;4.55;2.30;;;10.40;67.40;;;;;;5039654;28;20081;-63
2024/03/19 10:29:45;;;;;;;7.90;2.60;;;10.60;66.90;;;;;;5030328;28;20119;-64
2024/03/19 10:32:11;;;;;;;6.03;2.60;;;10.50;66.90;;;;;;5038998;28;20044;-63
2024/03/19 10:34:37;;;;;;;5.32;2.35;;;10.70;67.80;;;;;;5029298;28;20025;-62
2024/03/19 10:37:04;;;;;;;5.63;2.60;;;10.90;67.00;;;;;;5030187;28;20110;-62
2024/03/19 10:39:31;;;;;;;6.05;2.67;;;10.90;67.30;;;;;;5031302;28;20155;-62
2024/03/19 10:41:59;;;;;;;5.78;2.20;;;10.80;69.00;;;;;;5036411;28;20108;-62
2024/03/19 10:44:26;;;;;;;4.85;2.55;;;11.00;67.90;;;;;;5027508;28;20116;-63
2024/03/19 10:46:52;;;;;;;6.72;2.78;;;10.90;67.60;;;;;;5028400;28;20082;-62
2024/03/19 10:49:21;;;;;;;6.05;2.78;;;11.00;67.50;;;;;;5029894;28;20495;-62
2024/03/19 10:52:11;;;;;;;5.35;2.70;;;11.10;67.80;;;;;;5028177;28;20048;-63
2024/03/19 10:54:42;;;;;;;6.25;2.85;;;11.00;68.30;;;;;;5026850;28;20105;-64
2024/03/19 10:57:16;;;;;;;5.97;2.40;;;11.40;67.60;;;;;;5039699;28;20424;-63
2024/03/19 10:59:42;;;;;;;6.72;2.67;;;11.40;66.90;;;;;;5034356;28;20091;-64
2024/03/19 11:02:13;;;;;;;4.95;2.42;;;11.30;67.20;;;;;;5014601;28;20152;-64
2024/03/19 11:04:39;;;;;;;5.53;2.45;;;11.50;67.90;;;;;;5039181;28;20065;-64
2024/03/19 11:07:06;;;;;;;5.82;2.67;;;11.80;67.30;;;;;;5029833;28;20063;-63
2024/03/19 11:09:32;;;;;;;6.95;3.00;;;11.90;66.60;;;;;;5033403;28;20035;-64
2024/03/19 11:12:01;;;;;;;4.97;2.65;;;11.90;67.40;;;;;;5031259;28;20211;-63
2024/03/19 11:14:29;;;;;;;4.78;2.50;;;12.00;67.40;;;;;;5027420;28;20053;-63
2024/03/19 11:16:54;;;;;;;5.45;2.67;;;12.00;66.30;;;;;;5027773;28;20037;-64
2024/03/19 11:19:25;;;;;;;6.30;3.28;;;12.00;67.50;;;;;;5038676;28;20072;-63
2024/03/19 11:21:54;;;;;;;7.22;2.78;;;12.00;67.40;;;;;;5029328;28;20488;-63
2024/03/19 11:24:38;;;;;;;5.47;2.72;;;12.00;67.50;;;;;;5030413;28;20045;-63
2024/03/19 11:27:05;;;;;;;7.22;3.05;;;12.10;67.90;;;;;;5033211;28;20036;-64
2024/03/19 11:29:34;;;;;;;8.32;3.92;;;12.20;68.50;;;;;;5041813;28;20043;-65
2024/03/19 11:32:00;;;;;;;7.97;3.30;;;11.90;69.20;;;;;;5035986;28;20067;-64
2024/03/19 11:34:27;;;;;;;7.80;3.55;;;12.20;68.40;;;;;;5028410;28;20029;-63
2024/03/19 11:36:55;;;;;;;8.65;3.63;;;12.70;66.90;;;;;;5037436;28;20369;-66
2024/03/19 11:39:21;;;;;;;6.47;2.75;;;12.90;66.60;;;;;;5025001;28;20439;-64
2024/03/19 11:41:47;;;;;;;9.20;3.42;;;13.10;66.50;;;;;;5031041;28;20037;-63
2024/03/19 11:44:17;;;;;;;7.05;3.00;;;13.50;64.80;;;;;;5052985;28;20033;-65
2024/03/19 11:46:47;;;;;;;12.85;4.70;;;13.50;65.30;;;;;;5026651;28;20075;-64
2024/03/19 11:49:26;;;;;;;7.87;3.43;;;13.10;66.30;;;;;;5032927;28;20041;-64
2024/03/19 11:51:59;;;;;;;5.32;2.63;;;13.50;67.00;;;;;;5035891;28;20101;-63
2024/03/19 11:54:29;;;;;;;6.60;3.20;;;14.00;64.60;;;;;;5026184;28;20041;-66
2024/03/19 11:56:55;;;;;;;8.07;3.47;;;14.00;66.20;;;;;;5035593;28;20425;-65
2024/03/19 11:59:26;;;;;;;5.93;3.15;;;14.30;64.00;;;;;;5040785;28;20037;-63
2024/03/19 12:01:54;;;;;;;6.35;3.08;;;14.50;63.80;;;;;;5028087;28;20354;-64
2024/03/19 12:04:20;;;;;;;7.32;3.33;;;14.60;62.90;;;;;;5039790;28;20065;-66
2024/03/19 12:06:47;;;;;;;9.20;3.50;;;15.00;64.50;;;;;;5031545;28;20443;-64
2024/03/19 12:09:13;;;;;;;7.80;3.47;;;15.20;61.70;;;;;;5033032;28;20116;-64
2024/03/19 12:11:39;;;;;;;7.50;3.67;;;15.00;63.40;;;;;;5034552;28;20032;-64
2024/03/19 12:14:06;;;;;;;8.00;3.60;;;15.30;62.50;;;;;;5034222;28;20357;-64
2024/03/19 12:16:32;;;;;;;6.22;3.25;;;15.40;61.80;;;;;;5030241;28;20130;-65
2024/03/19 12:18:59;;;;;;;7.05;3.25;;;15.00;62.30;;;;;;5041299;28;20050;-64
2024/03/19 12:21:24;;;;;;;7.22;3.45;;;14.90;63.10;;;;;;5030753;28;20053;-64
2024/03/19 12:23:52;;;;;;;7.03;3.40;;;14.60;64.20;;;;;;5031481;28;20131;-66
2024/03/19 12:26:17;;;;;;;6.85;3.05;;;14.40;64.40;;;;;;5027807;28;20025;-64
2024/03/19 12:28:44;;;;;;;7.30;3.97;;;14.80;63.70;;;;;;5028222;28;20033;-63
2024/03/19 12:31:22;;;;;;;7.13;3.45;;;14.50;63.70;;;;;;5029520;28;20025;-64
2024/03/19 12:33:51;;;;;;;6.38;3.20;;;14.80;64.10;;;;;;5027511;28;20029;-64
2024/03/19 12:36:17;;;;;;;6.00;2.97;;;15.60;62.70;;;;;;5032253;28;20029;-65
2024/03/19 12:38:43;;;;;;;7.28;3.45;;;15.40;61.10;;;;;;5036978;28;20041;-63
2024/03/19 12:41:09;;;;;;;5.75;3.05;;;15.50;60.60;;;;;;5024881;28;20079;-66
2024/03/19 12:43:34;;;;;;;6.88;3.08;;;15.70;60.70;;;;;;5040568;28;20065;-64
2024/03/19 12:46:00;;;;;;;7.03;2.72;;;15.10;61.00;;;;;;5030744;28;20029;-64
2024/03/19 12:48:26;;;;;;;6.90;3.28;;;15.00;61.10;;;;;;5031117;28;20113;-66
2024/03/19 12:50:51;;;;;;;9.02;4.18;;;14.90;62.70;;;;;;5026371;28;20034;-64